CheckWX is a tool to help pilots better visualize weather data.  It is not intended as a substitute for an official pre-flight weather briefing.

08:00:24 UTC

EIKY TAF
Kerry Airport
Killarney, Ireland
TAF EIKY 190500Z 1906/1915 22008KT 6000 -RADZ BKN012 TEMPO 1906/1911 4000 BKN007 PROB40 TEMPO 1907/1911 2000 BKN003 BECMG 1908/1910 25008KT BECMG 1911/1913 9999 NSW FEW010 BKN017 TEMPO 1913/1915 BKN010

Mar-19@
06:00 UTC

Mar-19 @ 06:00 UTC

Mar-19@
08:00 UTC

Mar-19 @ 08:00 UTC

TAF EIKY 190500Z 1906/1915 22008KT 6000 -RADZ BKN012

Expired

Wind
  • 220° at 8 KTS
Conditions
Light Rain, Light Drizzle
Cloud Levels
  • Broken at 1,200' AGL

Mar-19@
06:00 UTC

Mar-19 @ 06:00 UTC

Mar-19@
11:00 UTC

Mar-19 @ 11:00 UTC

TEMPO 1906/1911 4000 BKN007

Temporary

Temporary Changes expected for less than half the time period

Cloud Levels
  • Broken at 700' AGL

Mar-19@
07:00 UTC

Mar-19 @ 07:00 UTC

Mar-19@
11:00 UTC

Mar-19 @ 11:00 UTC

PROB40 TEMPO 1907/1911 2000 BKN003

Temporary - 40% Likelihood

Temporary - 40% Likelihood during this time.

Cloud Levels
  • Broken at 300' AGL

Mar-19@
08:00 UTC

Mar-19 @ 08:00 UTC

Mar-19@
11:00 UTC

Mar-19 @ 11:00 UTC

BECMG 1908/1910 25008KT

Becoming

Becoming Conditions expected by Tue, Mar 19, 2019 @ 10:00 UTC

Wind
  • 250° at 8 KTS
Conditions
Light Rain, Light Drizzle
Cloud Levels
  • Broken at 1,200' AGL

Mar-19@
11:00 UTC

Mar-19 @ 11:00 UTC

Mar-19@
15:00 UTC

Mar-19 @ 15:00 UTC

BECMG 1911/1913 9999 NSW FEW010 BKN017

Becoming

Becoming Conditions expected by Tue, Mar 19, 2019 @ 13:00 UTC

Wind
  • 250° at 8 KTS
Conditions
No significant weather
Cloud Levels
  • Few at 1,000' AGL
  • Broken at 1,700' AGL

Mar-19@
13:00 UTC

Mar-19 @ 13:00 UTC

Mar-19@
15:00 UTC

Mar-19 @ 15:00 UTC

TEMPO 1913/1915 BKN010

Temporary

Temporary Changes expected for less than half the time period

Cloud Levels
  • Broken at 1,000' AGL